Time;durP1;ratioP1;P1;durP2;ratioP2;P2;SDS_P1;SDS_P2;PMS_P1;PMS_P2;Temp;Humidity;BMP_temperature;BMP_pressure;BME280_temperature;BME280_humidity;BME280_pressure;Samples;Min_cycle;Max_cycle;Signal;HPM_P1;HPM_P2
2023/02/22 00:00:46;;;;;;;57.92;19.50;;;;;;;11.14;63.63;101635.63;5020439;28;20093;-42
2023/02/22 00:03:16;;;;;;;54.58;19.52;;;;;;;11.09;64.19;101636.34;5022893;28;20036;-41
2023/02/22 00:05:45;;;;;;;56.75;19.17;;;;;;;11.05;64.14;101626.66;5021247;28;20558;-44
2023/02/22 00:08:12;;;;;;;53.55;18.95;;;;;;;11.16;64.07;101633.03;5024013;28;20044;-42
2023/02/22 00:10:37;;;;;;;49.97;18.77;;;;;;;11.17;63.91;101627.84;5016991;28;20087;-39
2023/02/22 00:13:06;;;;;;;54.83;19.75;;;;;;;11.27;63.44;101627.22;5021096;28;20033;-40
2023/02/22 00:15:32;;;;;;;48.88;18.17;;;;;;;11.11;64.18;101629.41;5020820;28;20041;-40
2023/02/22 00:17:58;;;;;;;49.83;17.73;;;;;;;11.04;64.04;101641.44;5017365;28;20112;-40
2023/02/22 00:20:23;;;;;;;50.28;18.77;;;;;;;11.05;64.04;101622.34;5020218;28;20128;-40
2023/02/22 00:22:52;;;;;;;53.30;19.52;;;;;;;10.99;64.46;101628.28;5016685;28;20053;-44
2023/02/22 00:25:20;;;;;;;50.47;18.33;;;;;;;10.90;64.17;101615.06;5020854;28;20038;-41
2023/02/22 00:27:52;;;;;;;52.72;18.30;;;;;;;10.70;65.50;101621.50;5016954;28;20037;-40
2023/02/22 00:30:25;;;;;;;50.78;18.70;;;;;;;11.02;64.41;101614.44;5020294;28;20026;-41
2023/02/22 00:32:51;;;;;;;50.55;18.63;;;;;;;11.17;63.71;101619.13;5016327;28;20184;-42
2023/02/22 00:35:21;;;;;;;53.05;18.95;;;;;;;10.98;64.33;101616.09;5020278;28;20412;-41
2023/02/22 00:37:48;;;;;;;55.63;19.95;;;;;;;10.82;65.01;101607.88;5016372;28;20575;-40
2023/02/22 00:40:15;;;;;;;53.38;18.88;;;;;;;11.01;64.74;101623.13;5003471;28;20136;-43
2023/02/22 00:42:41;;;;;;;53.40;19.70;;;;;;;10.90;65.08;101619.38;5017412;28;20061;-41
2023/02/22 00:45:06;;;;;;;51.33;19.02;;;;;;;11.09;64.48;101610.25;5020788;28;20061;-40
2023/02/22 00:47:32;;;;;;;52.58;19.20;;;;;;;11.12;64.37;101613.81;5021570;28;20056;-44
2023/02/22 00:49:59;;;;;;;53.25;18.95;;;;;;;11.10;64.03;101614.63;5017233;28;20037;-40
2023/02/22 00:52:24;;;;;;;50.45;19.50;;;;;;;11.07;64.21;101606.72;5021437;28;20036;-44
2023/02/22 00:54:49;;;;;;;49.90;19.10;;;;;;;11.08;63.86;101611.97;5017046;28;20037;-42
2023/02/22 00:57:15;;;;;;;55.50;19.73;;;;;;;10.93;64.28;101606.41;5021958;28;20028;-43
2023/02/22 00:59:40;;;;;;;52.38;18.83;;;;;;;11.06;63.72;101602.34;5017618;28;20056;-43
2023/02/22 01:02:05;;;;;;;53.88;19.30;;;;;;;11.09;63.95;101610.25;5020801;28;20033;-43
2023/02/22 01:04:30;;;;;;;53.28;19.40;;;;;;;10.96;64.18;101609.09;5020264;28;20087;-43
2023/02/22 01:06:57;;;;;;;51.95;19.30;;;;;;;11.02;63.66;101606.63;5016590;28;20030;-41
2023/02/22 01:09:22;;;;;;;51.50;19.70;;;;;;;10.89;63.74;101601.97;5019867;28;20033;-44
2023/02/22 01:11:54;;;;;;;50.67;19.67;;;;;;;10.82;63.54;101606.16;5016093;28;20041;-42
2023/02/22 01:14:20;;;;;;;52.88;20.25;;;;;;;10.52;63.74;101605.41;5019942;28;20099;-41
2023/02/22 01:16:45;;;;;;;52.78;20.45;;;;;;;10.73;64.13;101600.72;5016109;28;20041;-40
2023/02/22 01:19:11;;;;;;;57.85;23.10;;;;;;;10.60;64.02;101600.38;5020272;28;20033;-42
2023/02/22 01:21:38;;;;;;;58.70;23.23;;;;;;;10.68;63.70;101611.84;5015363;28;20105;-42
2023/02/22 01:24:03;;;;;;;57.78;23.00;;;;;;;10.70;63.92;101605.84;5020588;28;20029;-45
2023/02/22 01:26:28;;;;;;;52.45;21.02;;;;;;;10.72;63.41;101595.47;5023103;28;20038;-40
2023/02/22 01:28:54;;;;;;;53.75;21.27;;;;;;;10.72;63.39;101596.34;5020391;28;20033;-41
2023/02/22 01:31:19;;;;;;;50.00;19.52;;;;;;;10.70;63.25;101592.81;5022590;28;20082;-41
2023/02/22 01:33:44;;;;;;;48.45;18.92;;;;;;;10.76;63.38;101592.06;5016470;28;20117;-42
2023/02/22 01:36:10;;;;;;;50.35;19.98;;;;;;;10.76;63.50;101581.66;5020636;28;20098;-43
2023/02/22 01:38:36;;;;;;;54.40;20.42;;;;;;;10.70;63.54;101582.38;5016193;28;20033;-40
2023/02/22 01:41:04;;;;;;;52.97;20.63;;;;;;;10.70;63.82;101587.59;5020055;28;20446;-41
2023/02/22 01:43:31;;;;;;;53.80;20.23;;;;;;;10.69;63.75;101584.94;5019537;28;20025;-44
2023/02/22 01:45:59;;;;;;;51.25;20.80;;;;;;;10.38;63.84;101586.78;5016669;28;20033;-41
2023/02/22 01:48:32;;;;;;;53.35;20.55;;;;;;;10.23;64.57;101572.50;5019268;28;20488;-41
2023/02/22 01:51:18;;;;;;;49.55;20.33;;;;;;;10.35;64.30;101575.41;5015379;28;20041;-42
2023/02/22 01:53:51;;;;;;;53.33;20.23;;;;;;;10.29;64.22;101575.25;5014912;28;20037;-39
2023/02/22 01:56:19;;;;;;;54.47;20.80;;;;;;;10.32;64.36;101564.91;5019288;28;20216;-41
2023/02/22 01:58:53;;;;;;;52.40;20.15;;;;;;;10.34;65.00;101573.66;5015037;28;20051;-41
2023/02/22 02:01:20;;;;;;;50.63;19.60;;;;;;;10.25;64.44;101561.25;5019511;28;20047;-41
2023/02/22 02:03:47;;;;;;;51.05;19.58;;;;;;;10.32;64.56;101560.56;5017428;28;20056;-44
2023/02/22 02:06:14;;;;;;;49.95;19.83;;;;;;;10.35;64.27;101551.97;5021795;28;20033;-41
2023/02/22 02:08:50;;;;;;;52.38;19.73;;;;;;;10.40;64.40;101553.84;5018601;28;20123;-43
2023/02/22 02:11:19;;;;;;;52.95;20.05;;;;;;;10.39;64.17;101554.69;5005414;28;20101;-42
2023/02/22 02:13:46;;;;;;;55.63;20.58;;;;;;;10.31;64.41;101556.19;5017108;28;20029;-41
2023/02/22 02:16:11;;;;;;;53.22;20.58;;;;;;;10.38;64.21;101552.03;5001346;28;20423;-41
2023/02/22 02:18:37;;;;;;;56.42;20.63;;;;;;;10.33;64.55;101549.31;5014924;28;20040;-41
2023/02/22 02:21:26;;;;;;;54.05;20.20;;;;;;;10.37;64.50;101545.94;5021689;28;20042;-43
2023/02/22 02:24:10;;;;;;;48.55;19.70;;;;;;;10.36;64.44;101544.19;5018569;28;20522;-42
2023/02/22 02:27:07;;;;;;;53.28;20.77;;;;;;;10.31;64.49;101537.97;5016500;28;20117;-41
2023/02/22 02:29:58;;;;;;;49.53;20.05;;;;;;;10.29;64.42;101536.19;5015519;28;20029;-42
2023/02/22 02:32:46;;;;;;;51.15;20.92;;;;;;;10.16;64.56;101537.56;5018962;28;20112;-40
2023/02/22 02:35:45;;;;;;;56.85;21.85;;;;;;;10.10;64.98;101533.06;5014548;28;20037;-41
2023/02/22 02:38:42;;;;;;;54.65;21.13;;;;;;;10.12;64.95;101528.75;5015135;28;20036;-41
2023/02/22 02:41:16;;;;;;;54.22;20.77;;;;;;;10.13;65.28;101516.63;5014731;28;20068;-41
2023/02/22 02:43:53;;;;;;;54.75;20.90;;;;;;;9.92;65.51;101522.19;5014763;28;20407;-41
2023/02/22 02:47:00;;;;;;;56.20;21.17;;;;;;;10.01;64.85;101517.19;5018745;28;20034;-41
2023/02/22 02:49:35;;;;;;;51.95;19.67;;;;;;;10.09;64.63;101512.19;4987533;28;20176;-41
2023/02/22 02:52:03;;;;;;;51.95;20.70;;;;;;;10.04;64.50;101505.97;5014819;28;20060;-39
2023/02/22 02:54:29;;;;;;;57.03;20.92;;;;;;;9.72;65.85;101497.31;5019557;28;20195;-41
2023/02/22 02:56:56;;;;;;;53.22;20.80;;;;;;;10.02;64.91;101498.13;5018526;28;20025;-40
2023/02/22 02:59:33;;;;;;;54.50;20.92;;;;;;;9.83;65.77;101497.59;5022700;28;20108;-41
2023/02/22 03:02:33;;;;;;;53.55;20.55;;;;;;;10.00;64.92;101497.19;5020217;28;20056;-41
2023/02/22 03:05:26;;;;;;;54.88;20.67;;;;;;;9.97;64.92;101489.31;5022879;28;20503;-42
2023/02/22 03:08:00;;;;;;;52.58;20.63;;;;;;;9.96;65.10;101484.94;5019762;28;20111;-41
2023/02/22 03:11:05;;;;;;;53.80;19.98;;;;;;;9.93;65.00;101481.38;5021854;28;20553;-40
2023/02/22 03:13:58;;;;;;;54.25;19.23;;;;;;;9.74;64.99;101477.41;5022863;28;20402;-42
2023/02/22 03:16:38;;;;;;;54.65;20.77;;;;;;;9.85;65.29;101470.75;5018030;28;20581;-41
2023/02/22 03:19:15;;;;;;;54.97;20.00;;;;;;;9.86;65.32;101474.25;5000027;28;20112;-41
2023/02/22 03:21:52;;;;;;;56.15;20.25;;;;;;;9.73;66.13;101471.34;5017760;28;20045;-40
2023/02/22 03:24:30;;;;;;;55.15;20.48;;;;;;;9.92;65.34;101469.19;5022334;28;20163;-41
2023/02/22 03:27:42;;;;;;;55.28;20.40;;;;;;;9.94;65.28;101454.50;5022748;28;20056;-43
2023/02/22 03:30:12;;;;;;;54.67;20.85;;;;;;;9.94;65.30;101444.09;4937925;28;20031;-41
2023/02/22 03:32:42;;;;;;;55.70;21.05;;;;;;;9.91;65.42;101442.28;4938558;28;20062;-41
2023/02/22 03:35:17;;;;;;;57.30;21.35;;;;;;;9.72;66.09;101440.91;4991629;28;20027;-41
2023/02/22 03:37:44;;;;;;;;;;;;;;;9.66;66.40;101434.66;5022740;28;20041;-42
2023/02/22 03:40:15;;;;;;;53.38;20.13;;;;;;;9.50;66.60;101441.22;5026561;28;19925;-40
2023/02/22 03:42:55;;;;;;;53.50;20.67;;;;;;;9.41;67.38;101442.66;5021382;28;20057;-42
2023/02/22 03:45:24;;;;;;;54.55;20.75;;;;;;;9.51;66.86;101440.38;5022890;28;20029;-40
2023/02/22 03:47:57;;;;;;;57.95;20.60;;;;;;;9.36;67.60;101433.03;5018737;28;20033;-40
2023/02/22 03:50:28;;;;;;;51.70;20.70;;;;;;;9.62;67.07;101431.13;5023045;28;20052;-41
2023/02/22 03:52:55;;;;;;;54.72;20.63;;;;;;;9.57;66.84;101427.53;5018904;28;20124;-41
2023/02/22 03:55:22;;;;;;;57.75;21.10;;;;;;;9.69;66.51;101420.03;5021144;28;20029;-41
2023/02/22 03:57:55;;;;;;;55.20;20.17;;;;;;;9.62;66.51;101418.09;5016957;28;20500;-40
2023/02/22 04:00:25;;;;;;;51.92;20.63;;;;;;;9.48;67.28;101405.56;5021015;28;20511;-41
2023/02/22 04:02:50;;;;;;;54.83;21.17;;;;;;;9.55;66.79;101413.56;5017423;28;20503;-41
2023/02/22 04:05:16;;;;;;;55.67;21.15;;;;;;;9.54;67.00;101409.22;5020413;28;20105;-41
2023/02/22 04:07:42;;;;;;;55.05;21.23;;;;;;;9.61;66.59;101408.53;5017555;28;20029;-42
2023/02/22 04:10:08;;;;;;;55.80;22.02;;;;;;;9.33;67.60;101409.50;5020571;28;20459;-40
2023/02/22 04:12:34;;;;;;;59.90;21.77;;;;;;;9.45;67.62;101403.78;5016998;28;20454;-41
2023/02/22 04:15:00;;;;;;;57.72;21.45;;;;;;;9.40;67.19;101387.13;5021390;28;20492;-41
2023/02/22 04:17:26;;;;;;;57.75;21.45;;;;;;;9.54;67.29;101393.59;5021443;28;20041;-42
2023/02/22 04:19:52;;;;;;;56.00;21.33;;;;;;;9.66;67.21;101393.91;5016839;28;20041;-43
2023/02/22 04:22:17;;;;;;;62.35;21.50;;;;;;;9.46;67.36;101389.91;5020892;28;20135;-40
2023/02/22 04:24:42;;;;;;;56.20;20.95;;;;;;;9.33;67.83;101383.50;4998671;28;20029;-40
2023/02/22 04:27:08;;;;;;;56.75;21.05;;;;;;;9.36;67.44;101380.09;5020352;28;20033;-41
2023/02/22 04:29:33;;;;;;;56.88;21.05;;;;;;;9.30;67.98;101377.34;5016961;28;20113;-40
2023/02/22 04:31:58;;;;;;;55.10;21.23;;;;;;;9.15;68.49;101390.81;5022677;28;20113;-43
2023/02/22 04:34:24;;;;;;;54.67;20.70;;;;;;;9.16;68.52;101378.69;5025917;28;20506;-41
2023/02/22 04:36:49;;;;;;;55.65;21.10;;;;;;;9.23;67.98;101380.59;5018267;28;20045;-41
2023/02/22 04:39:14;;;;;;;60.13;21.80;;;;;;;8.83;69.62;101378.66;5019032;28;20033;-41
2023/02/22 04:41:40;;;;;;;58.28;21.50;;;;;;;8.77;70.20;101378.47;5016322;28;20056;-40
2023/02/22 04:44:05;;;;;;;63.63;21.75;;;;;;;9.08;69.31;101378.50;5021032;28;20025;-42
2023/02/22 04:46:30;;;;;;;65.30;21.77;;;;;;;8.98;70.23;101371.25;5023589;28;20395;-40
2023/02/22 04:48:56;;;;;;;67.65;21.65;;;;;;;8.94;70.04;101366.81;5016624;28;20034;-41
2023/02/22 04:51:22;;;;;;;64.90;21.15;;;;;;;8.91;70.34;101365.00;5020488;28;20052;-42
2023/02/22 04:53:48;;;;;;;62.55;21.88;;;;;;;8.98;70.35;101370.38;5016470;28;20068;-42
2023/02/22 04:56:16;;;;;;;65.03;22.27;;;;;;;9.16;69.71;101365.66;5020828;28;20057;-42
2023/02/22 04:58:42;;;;;;;62.58;21.33;;;;;;;9.33;69.61;101367.88;5016491;28;20034;-43
2023/02/22 05:01:07;;;;;;;61.78;20.45;;;;;;;9.01;70.18;101358.34;5020258;28;20035;-40
2023/02/22 05:03:32;;;;;;;60.00;20.00;;;;;;;9.21;69.51;101359.75;5018230;28;20517;-39
2023/02/22 05:05:58;;;;;;;60.42;21.00;;;;;;;9.30;69.83;101364.31;5019585;28;20415;-45
2023/02/22 05:08:23;;;;;;;62.38;21.17;;;;;;;9.38;69.07;101362.81;5020167;28;20375;-40
2023/02/22 05:10:48;;;;;;;58.90;19.88;;;;;;;9.23;69.77;101363.28;5016025;28;20503;-40
2023/02/22 05:13:14;;;;;;;58.83;20.02;;;;;;;9.35;69.56;101357.50;5020216;28;20488;-40
2023/02/22 05:15:39;;;;;;;63.42;20.50;;;;;;;9.35;69.35;101357.50;5015914;28;20045;-41
2023/02/22 05:18:04;;;;;;;67.38;20.98;;;;;;;9.48;69.40;101363.91;5019502;28;20026;-43
2023/02/22 05:20:34;;;;;;;63.42;21.20;;;;;;;9.44;69.42;101349.06;5020496;28;20109;-42
2023/02/22 05:23:01;;;;;;;62.88;20.75;;;;;;;9.36;69.90;101352.34;5016216;28;20048;-42
2023/02/22 05:25:27;;;;;;;71.95;21.63;;;;;;;9.28;69.90;101347.78;5019922;28;20038;-40
2023/02/22 05:27:56;;;;;;;62.38;21.17;;;;;;;9.48;70.17;101340.50;5015763;28;22700;-41
2023/02/22 05:30:24;;;;;;;66.85;21.58;;;;;;;9.46;69.77;101342.16;5019484;28;22142;-44
2023/02/22 05:32:50;;;;;;;59.60;20.55;;;;;;;9.38;70.02;101342.00;5016056;28;20048;-44
2023/02/22 05:35:17;;;;;;;52.90;19.38;;;;;;;9.32;70.04;101339.25;5019951;28;20445;-41
2023/02/22 05:37:42;;;;;;;60.05;19.73;;;;;;;9.25;70.64;101339.91;5016652;28;20369;-41
2023/02/22 05:40:08;;;;;;;64.65;20.95;;;;;;;9.58;69.40;101340.75;5005947;28;20044;-43
2023/02/22 05:42:33;;;;;;;57.88;19.67;;;;;;;9.56;69.90;101341.59;5021589;28;20130;-40
2023/02/22 05:44:59;;;;;;;54.38;18.33;;;;;;;9.58;69.60;101345.06;5024901;28;20187;-41
2023/02/22 05:47:25;;;;;;;52.72;18.52;;;;;;;9.58;69.88;101342.47;5021039;28;20040;-40
2023/02/22 05:49:50;;;;;;;57.17;18.52;;;;;;;9.46;70.18;101331.75;5015520;28;20030;-41
2023/02/22 05:52:16;;;;;;;49.97;17.02;;;;;;;9.17;71.21;101331.03;5019905;28;20034;-42
2023/02/22 05:54:41;;;;;;;49.03;17.83;;;;;;;9.45;69.96;101330.91;5014448;28;20068;-44
2023/02/22 05:57:07;;;;;;;46.88;17.17;;;;;;;9.43;69.90;101326.50;5019199;28;20037;-42
2023/02/22 05:59:32;;;;;;;44.05;16.50;;;;;;;9.52;69.86;101325.00;5019691;28;20033;-39
2023/02/22 06:01:57;;;;;;;49.47;16.58;;;;;;;9.10;71.01;101316.97;5015621;28;20403;-41
2023/02/22 06:04:23;;;;;;;48.20;16.42;;;;;;;9.05;71.66;101312.50;5019608;28;20383;-43
2023/02/22 06:06:48;;;;;;;51.10;16.65;;;;;;;9.00;71.98;101304.56;5014987;28;20240;-43
2023/02/22 06:09:13;;;;;;;45.15;17.10;;;;;;;9.21;71.41;101297.31;5019428;28;20067;-41
2023/02/22 06:11:39;;;;;;;44.20;16.30;;;;;;;9.44;70.43;101290.09;5015096;28;20462;-40
2023/02/22 06:14:04;;;;;;;46.70;16.05;;;;;;;9.17;71.01;101297.22;5019469;28;20045;-38
2023/02/22 06:16:30;;;;;;;42.22;15.73;;;;;;;9.27;71.09;101294.88;5022478;28;20029;-40
2023/02/22 06:18:56;;;;;;;43.08;15.30;;;;;;;8.85;72.14;101288.56;5016772;28;20045;-41
2023/02/22 06:21:22;;;;;;;46.42;14.38;;;;;;;9.07;71.57;101275.28;5019319;28;20407;-40
2023/02/22 06:23:47;;;;;;;39.70;15.02;;;;;;;9.18;71.48;101270.34;5015641;28;20063;-41
2023/02/22 06:26:16;;;;;;;41.10;14.73;;;;;;;9.09;71.64;101273.59;5020221;28;20065;-42
2023/02/22 06:28:41;;;;;;;38.53;14.35;;;;;;;9.26;71.10;101277.53;5016598;28;20112;-42
2023/02/22 06:31:07;;;;;;;34.78;14.60;;;;;;;9.39;70.62;101283.03;5022974;28;20116;-42
2023/02/22 06:33:32;;;;;;;39.28;15.38;;;;;;;9.48;70.68;101291.06;5023317;28;20511;-38
2023/02/22 06:35:57;;;;;;;38.50;14.80;;;;;;;9.36;70.94;101302.91;5019252;28;20026;-44
2023/02/22 06:38:24;;;;;;;40.10;15.32;;;;;;;9.40;70.66;101298.66;5023081;28;20124;-41
2023/02/22 06:40:50;;;;;;;36.15;14.77;;;;;;;9.54;70.69;101301.59;5018393;28;20045;-41
2023/02/22 06:43:16;;;;;;;40.97;15.25;;;;;;;9.42;71.29;101314.31;5022859;28;20052;-41
2023/02/22 06:45:41;;;;;;;41.95;15.40;;;;;;;9.62;70.12;101306.16;5018173;28;20037;-41
2023/02/22 06:48:08;;;;;;;35.97;14.75;;;;;;;9.70;70.10;101304.59;5022875;28;20029;-44
2023/02/22 06:50:33;;;;;;;41.30;15.38;;;;;;;9.36;70.65;101304.63;5020780;28;20246;-42
2023/02/22 06:52:59;;;;;;;44.05;16.13;;;;;;;9.37;71.36;101293.41;5022487;28;20040;-42
2023/02/22 06:55:27;;;;;;;43.80;15.98;;;;;;;9.17;71.83;101285.09;5025288;28;20040;-41
2023/02/22 06:57:52;;;;;;;42.13;15.00;;;;;;;9.25;71.91;101280.97;5002040;28;20038;-41
2023/02/22 07:00:20;;;;;;;42.65;15.82;;;;;;;9.39;71.55;101296.94;5023258;28;20399;-40
2023/02/22 07:02:49;;;;;;;43.47;15.65;;;;;;;9.42;71.01;101306.50;5019269;28;20411;-42
2023/02/22 07:05:17;;;;;;;45.30;15.85;;;;;;;9.30;71.48;101299.28;5023750;28;20048;-41
2023/02/22 07:07:43;;;;;;;41.42;15.50;;;;;;;9.43;71.12;101314.38;5018969;28;20492;-40
2023/02/22 07:10:18;;;;;;;44.10;16.17;;;;;;;9.60;71.26;101319.97;5022305;28;20108;-42
2023/02/22 07:12:43;;;;;;;39.53;14.68;;;;;;;9.31;71.77;101314.94;5018632;28;20037;-40
2023/02/22 07:15:09;;;;;;;37.63;15.27;;;;;;;9.58;70.95;101311.25;5022755;28;20491;-41
2023/02/22 07:17:34;;;;;;;37.33;14.30;;;;;;;9.52;71.37;101309.38;5018289;28;20033;-44
2023/02/22 07:20:00;;;;;;;36.67;15.05;;;;;;;9.39;71.61;101312.53;5021864;28;20132;-41
2023/02/22 07:22:25;;;;;;;35.80;14.30;;;;;;;9.29;71.68;101315.72;5022143;28;20493;-43
2023/02/22 07:24:50;;;;;;;34.15;13.70;;;;;;;8.99;72.29;101310.59;5017873;28;20033;-42
2023/02/22 07:27:16;;;;;;;32.60;14.02;;;;;;;9.21;71.65;101306.88;5021995;28;20033;-40
2023/02/22 07:29:42;;;;;;;35.22;13.98;;;;;;;9.37;71.67;101311.59;5017750;28;20034;-44
2023/02/22 07:32:08;;;;;;;33.22;14.18;;;;;;;9.51;71.41;101318.03;5022028;28;20084;-41
2023/02/22 07:34:34;;;;;;;32.35;13.98;;;;;;;9.55;71.16;101312.06;5022199;28;20025;-43
2023/02/22 07:36:59;;;;;;;31.38;13.43;;;;;;;9.56;71.40;101313.84;5018201;28;20041;-42
2023/02/22 07:39:25;;;;;;;31.42;13.38;;;;;;;9.64;70.79;101307.06;5023780;28;20065;-40
2023/02/22 07:41:51;;;;;;;31.02;13.35;;;;;;;9.79;70.11;101319.56;5022064;28;20033;-42
2023/02/22 07:44:16;;;;;;;31.13;13.32;;;;;;;9.76;69.53;101320.38;5026229;28;20041;-40
2023/02/22 07:46:46;;;;;;;32.38;13.95;;;;;;;9.89;69.71;101329.34;5021404;28;20099;-41
2023/02/22 07:49:12;;;;;;;30.45;13.95;;;;;;;10.05;69.53;101322.78;5025603;28;20037;-43
2023/02/22 07:51:37;;;;;;;31.88;13.82;;;;;;;10.07;69.36;101323.69;5018377;28;20029;-41
2023/02/22 07:54:02;;;;;;;31.50;13.48;;;;;;;10.07;69.64;101315.88;5022573;28;20033;-40
2023/02/22 07:56:27;;;;;;;34.45;14.25;;;;;;;9.87;69.69;101317.16;5023192;28;20565;-40
2023/02/22 07:58:53;;;;;;;32.10;13.82;;;;;;;9.84;69.77;101307.53;5000823;28;20061;-40
2023/02/22 08:01:18;;;;;;;30.90;13.95;;;;;;;10.05;68.79;101307.16;5021131;28;20065;-43
2023/02/22 08:03:46;;;;;;;31.98;13.70;;;;;;;9.83;69.64;101305.78;5017755;28;20099;-41
2023/02/22 08:06:11;;;;;;;30.95;13.85;;;;;;;9.71;69.94;101301.16;5022097;28;20456;-41
2023/02/22 08:08:37;;;;;;;34.13;14.20;;;;;;;9.13;71.56;101298.88;5017900;28;20064;-43
2023/02/22 08:11:03;;;;;;;31.40;13.75;;;;;;;9.70;70.36;101281.16;5022286;28;20029;-39
2023/02/22 08:13:28;;;;;;;32.35;13.98;;;;;;;9.63;70.35;101288.81;5022819;28;20029;-42
2023/02/22 08:15:54;;;;;;;29.08;13.60;;;;;;;9.76;69.80;101283.91;5018633;28;20514;-42
2023/02/22 08:18:21;;;;;;;30.90;14.05;;;;;;;9.99;69.31;101292.28;5021968;28;20052;-40
2023/02/22 08:20:48;;;;;;;32.67;14.55;;;;;;;9.95;69.22;101293.03;5017714;28;20037;-41
2023/02/22 08:23:14;;;;;;;30.58;14.07;;;;;;;10.03;69.57;101280.19;5021795;28;20396;-43
2023/02/22 08:25:40;;;;;;;27.35;12.73;;;;;;;10.10;68.87;101282.09;5018224;28;20503;-43
2023/02/22 08:28:09;;;;;;;28.88;13.27;;;;;;;9.91;68.86;101269.50;5023408;28;20040;-41
2023/02/22 08:30:36;;;;;;;29.15;12.85;;;;;;;9.90;69.32;101275.53;5020402;28;20087;-42
2023/02/22 08:33:02;;;;;;;27.80;13.40;;;;;;;10.07;68.35;101274.19;5024356;28;20044;-42
2023/02/22 08:35:31;;;;;;;27.30;12.80;;;;;;;9.99;68.92;101273.16;5023693;28;20044;-41
2023/02/22 08:37:59;;;;;;;27.20;13.00;;;;;;;9.97;68.83;101267.91;5020194;28;20464;-41
2023/02/22 08:40:27;;;;;;;29.77;13.00;;;;;;;9.86;69.12;101255.50;5023382;28;20491;-41
2023/02/22 08:42:53;;;;;;;26.63;14.05;;;;;;;9.90;69.71;101255.59;5017220;28;21489;-43
2023/02/22 08:45:19;;;;;;;30.50;13.88;;;;;;;9.97;69.19;101260.09;5020866;28;20022;-45
2023/02/22 08:47:45;;;;;;;29.88;13.32;;;;;;;10.30;68.00;101252.16;5017375;28;20052;-42
2023/02/22 08:50:29;;;;;;;29.73;14.27;;;;;;;9.98;69.14;101240.16;5020869;28;20079;-41
2023/02/22 08:52:57;;;;;;;32.85;13.95;;;;;;;9.57;70.35;101242.72;5016462;28;20041;-41
2023/02/22 08:55:25;;;;;;;31.08;13.98;;;;;;;10.02;69.05;101234.13;5020727;28;20470;-41
2023/02/22 08:57:50;;;;;;;30.70;13.68;;;;;;;10.24;68.74;101235.53;5017383;28;20064;-43
2023/02/22 09:00:23;;;;;;;28.00;14.02;;;;;;;10.23;68.92;101236.38;5002888;28;20124;-42
2023/02/22 09:02:49;;;;;;;30.38;13.55;;;;;;;10.24;68.79;101235.53;5016196;28;20044;-41
2023/02/22 09:05:15;;;;;;;29.15;14.23;;;;;;;10.72;66.95;101230.38;5020439;28;20033;-44
2023/02/22 09:07:41;;;;;;;27.33;13.32;;;;;;;10.70;67.35;101230.34;5016613;28;20036;-41
2023/02/22 09:10:11;;;;;;;29.58;14.63;;;;;;;11.04;66.24;101237.03;5020031;28;20030;-41
2023/02/22 09:12:36;;;;;;;27.00;13.50;;;;;;;11.12;65.87;101235.44;5016108;28;20051;-45
2023/02/22 09:15:02;;;;;;;27.83;14.10;;;;;;;11.08;66.04;101227.53;5020338;28;20488;-40
2023/02/22 09:17:27;;;;;;;28.50;14.23;;;;;;;10.46;67.35;101222.06;5023267;28;20030;-40
2023/02/22 09:19:53;;;;;;;30.30;15.05;;;;;;;10.81;66.58;101226.19;5020473;28;20231;-41
2023/02/22 09:22:18;;;;;;;33.72;15.57;;;;;;;11.03;65.87;101237.03;5020751;28;20036;-40
2023/02/22 09:24:44;;;;;;;33.78;15.20;;;;;;;10.93;66.08;101230.75;4998050;28;20168;-41
2023/02/22 09:27:11;;;;;;;32.40;15.50;;;;;;;10.85;66.01;101235.84;5020158;28;20751;-44
2023/02/22 09:29:36;;;;;;;30.25;14.75;;;;;;;10.42;67.37;101233.28;5016223;28;20133;-44
2023/02/22 09:32:03;;;;;;;29.88;15.38;;;;;;;10.85;66.31;101234.97;5021104;28;20511;-43
2023/02/22 09:34:28;;;;;;;29.85;14.48;;;;;;;11.02;65.90;101257.00;5021816;28;20092;-41
2023/02/22 09:36:56;;;;;;;28.42;14.35;;;;;;;11.39;65.30;101256.78;5017154;28;20223;-40
2023/02/22 09:39:22;;;;;;;29.73;14.65;;;;;;;11.49;64.72;101268.22;5021825;28;20030;-42
2023/02/22 09:42:14;;;;;;;29.20;14.00;;;;;;;11.51;64.20;101279.59;5017805;28;20494;-41
2023/02/22 09:45:05;;;;;;;26.60;13.70;;;;;;;11.72;63.59;101286.84;5014365;28;20043;-41
2023/02/22 09:47:56;;;;;;;28.80;14.43;;;;;;;11.68;63.83;101287.69;5021735;28;20042;-41
2023/02/22 09:50:25;;;;;;;28.13;13.90;;;;;;;11.69;63.37;101271.16;5019598;28;20106;-39
2023/02/22 09:53:06;;;;;;;30.60;14.20;;;;;;;11.75;63.22;101258.22;5020416;28;20105;-42
2023/02/22 09:55:42;;;;;;;27.08;14.07;;;;;;;11.66;63.17;101261.53;5022480;28;20037;-42
2023/02/22 09:58:32;;;;;;;29.90;15.10;;;;;;;11.75;63.08;101248.66;5015491;28;20034;-41
2023/02/22 10:01:17;;;;;;;28.17;14.43;;;;;;;11.76;62.76;101245.19;5015586;28;20098;-41
2023/02/22 10:04:09;;;;;;;28.85;14.65;;;;;;;11.38;63.86;101238.47;5015283;28;20191;-41
2023/02/22 10:06:37;;;;;;;27.02;14.45;;;;;;;11.86;62.60;101232.25;5018990;28;20083;-44
2023/02/22 10:09:09;;;;;;;27.27;15.07;;;;;;;11.64;63.10;101234.53;5015151;28;20045;-41
2023/02/22 10:11:48;;;;;;;27.15;14.45;;;;;;;11.70;62.96;101233.75;5019649;28;20488;-41
2023/02/22 10:14:47;;;;;;;31.13;14.68;;;;;;;11.91;62.44;101233.19;5015864;28;20037;-41
2023/02/22 10:17:16;;;;;;;26.08;13.77;;;;;;;11.70;63.21;101252.03;5007223;23;20034;-74
2023/02/22 10:19:56;;;;;;;28.13;14.10;;;;;;;12.06;62.62;101260.41;4995065;28;20045;-75
2023/02/22 10:22:55;;;;;;;27.33;13.90;;;;;;;11.97;63.53;101264.63;4999452;28;20060;-74
2023/02/22 10:25:35;;;;;;;29.88;13.95;;;;;;;12.12;62.90;101260.50;4951672;28;20041;-74
2023/02/22 10:28:15;;;;;;;29.90;13.98;;;;;;;12.19;63.20;101266.69;4996353;28;20055;-74
2023/02/22 10:30:53;;;;;;;24.85;13.35;;;;;;;12.03;63.49;101264.69;4996363;28;20038;-73
2023/02/22 10:33:35;;;;;;;27.17;14.10;;;;;;;12.11;63.39;101261.34;4983152;28;20088;-73
2023/02/22 10:36:02;;;;;;;25.70;13.77;;;;;;;12.09;63.28;101259.56;4978441;28;20469;-73
2023/02/22 10:38:34;;;;;;;27.35;14.48;;;;;;;12.27;62.38;101266.75;4982733;28;20394;-75
2023/02/22 10:41:08;;;;;;;28.70;14.27;;;;;;;12.26;62.64;101262.41;4983075;28;20049;-74
2023/02/22 10:43:36;;;;;;;25.77;13.77;;;;;;;12.45;61.69;101261.75;4994305;28;20057;-76
2023/02/22 10:46:06;;;;;;;26.63;13.88;;;;;;;12.26;61.62;101265.03;4999002;28;20549;-75
2023/02/22 10:48:38;;;;;;;28.40;14.25;;;;;;;12.74;60.99;101255.13;4981877;28;20388;-74
2023/02/22 10:51:07;;;;;;;25.35;14.15;;;;;;;12.76;60.17;101240.31;4994495;28;20038;-74
2023/02/22 10:53:36;;;;;;;28.13;14.60;;;;;;;12.90;59.42;101238.72;4999185;28;20116;-75
2023/02/22 10:56:23;;;;;;;27.45;14.57;;;;;;;12.81;60.20;101233.38;4977834;28;20030;-75
2023/02/22 10:59:03;;;;;;;27.42;14.57;;;;;;;13.06;60.21;101234.50;4994227;28;20046;-74
2023/02/22 11:01:31;;;;;;;28.40;15.05;;;;;;;13.12;60.43;101220.56;4998694;28;20037;-76
2023/02/22 11:04:11;;;;;;;30.48;15.45;;;;;;;13.46;59.26;101227.00;4994778;28;20041;-74
2023/02/22 11:06:37;;;;;;;28.58;14.80;;;;;;;13.63;58.05;101218.41;4994048;28;20044;-75
2023/02/22 11:09:09;;;;;;;30.48;15.43;;;;;;;13.57;57.87;101207.00;4997837;28;20523;-75
2023/02/22 11:11:35;;;;;;;27.48;15.68;;;;;;;13.63;56.98;101218.41;4977386;28;20030;-74
2023/02/22 11:14:02;;;;;;;25.65;14.82;;;;;;;13.66;57.26;101207.91;4999218;28;20033;-74
2023/02/22 11:16:41;;;;;;;26.08;15.18;;;;;;;13.79;56.83;101206.25;5001323;28;20446;-74
2023/02/22 11:19:19;;;;;;;30.77;16.15;;;;;;;13.60;57.01;101212.28;4999185;28;20026;-75
2023/02/22 11:21:55;;;;;;;27.48;15.50;;;;;;;13.61;57.68;101203.53;4997531;28;20100;-76
2023/02/22 11:24:23;;;;;;;28.70;15.63;;;;;;;13.69;56.98;101202.72;5002569;28;20030;-74
2023/02/22 11:26:56;;;;;;;27.02;15.30;;;;;;;13.68;56.65;101210.56;4998292;28;20034;-74